Terminal Aerodrome Forecast
Issued by NWS

Home | Current Version | Previous Version | Graphics & Text | Print | Product List | Glossary On
Versions: 1 2 3 4 5 6 7 8 9 10 11 12 13 14 15 16 17 18 19 20 21 22
000
FTUS43 KFGF 261120 AAB
TAFBJI
TAF AMD
KBJI 261120Z 2611/2712 VRB03KT 5SM BR OVC003
     FM261300 21007KT P6SM BKN010
     FM261500 22007KT P6SM BKN025
     FM261900 24011KT P6SM SCT100
     FM270300 VRB06KT P6SM SCT250=

USA.gov is the U.S. government's official web portal to all federal, state and local government web resources and services.